Terminal Aerodrome Forecast
Issued by NWS Louisville, KY

Home | Current Version | Previous Version | Text Only | Print | Product List | Glossary On
Versions: 1 2 3 4 5 6 7 8 9 10 11 12 13 14
000
FTUS43 KLMK 202327
TAFLEX
TAF
KLEX 202327Z 2100/2124 24004KT P6SM FEW060 SCT200
     FM211500 24008KT P6SM SCT060 SCT200=

USA.gov is the U.S. government's official web portal to all federal, state and local government web resources and services.